Terminal Aerodrome Forecast
Issued by NWS

Home | Current Version | Previous Version | Text Only | Print | Product List | Glossary On
Versions: 1 2 3 4 5 6 7 8 9 10 11 12
000
FTAK31 PAFA 242336
TAFABT
TAF
PABT 242336Z 2500/2524 21009G15KT P6SM VCSH SCT025 BKN070 BKN120
     FM250300 18004KT 5SM -SHRA SCT025 BKN050 OVC090
     FM250900 17003KT P6SM BKN050 OVC090=

USA.gov is the U.S. government's official web portal to all federal, state and local government web resources and services.